Current Conditions
Partly Cloudy
Conditions



Pressure
29.98 (inHG) - 1015.22 (mb)
Visibility

10.0 (miles) - 16.1 (km)
Temperature
79  °F
Temperature
73  °F
Dewpoint
84  %
 Humidity
Wind Speed
13  mph
11  kts
21  km/h
5.8  m/s
Wind Direction
N
45°
E
90°
135°
S
180°
225°
W
270°
315°
 180°

Due South
Airport Data
KMYR
Myrtle Beach International Airport
Metar :KMYR 271156Z 18011KT 10SM FEW021 SCT025 26/23 A2998 RMK AO2 SLP151 T02560233 10256 20244 53002
Fri 27th May 07:56 am
Raw Metar Info
Raw METAR is the most common format in the world for the transmission of observational weather data. It is highly standardized through the International Civil Aviation Organization (ICAO), which allows it to be understood throughout most of the world.
API Info
Data Provided by
https://www.checkwx.com/weather/KMYR

Aviation Weather providing METAR, TAF, AIRMET, SIGMET and OUTLOOK Weather Reports
© Info
CSS/SVG/PHP scripts were developed by weather34.com for use in the weather34 template © 2015-2022

Guide Info provided by Metar-Wikipedia